• Join FlightAware (Why Join?)
  • Login
  • US Flag 
11:37PM EDT


 

Airport Tracker/Info


-or-


 

Live Flight TrackerFlight Track Log ✈ SKW5476 ✈ 27-Apr-2013 ✈ KSFO - KRDM

Flight Track Log - Related Links

Times and Time Zones

All times are in EDT time to prevent confusion due to time zone crossing. See the SKW5476 flight status page for this flight to view local times or setup timezone preferences in your user account.

Time Position Orientation Groundspeed Altitude Reporting Facility
EDT Latitude Longitude Course Direction KTS MPH feet Rate Location/Type
03:43PM 37.6500 -122.3667 North 138 159 1,400  Level Northern Cal TRACON
03:44PM 37.6719 -122.3681 357° North 169 194 2,100 1,260 Climbing Oakland Center
03:45PM 37.7225 -122.3631 North 180 207 3,700 1,740 Climbing Oakland Center
03:46PM 37.8503 -122.3667 North  Level FlightAware Approximate
03:46PM 37.7819 -122.3753 351° North 180 207 5,700  Level Oakland Center
03:47PM 37.9272 -122.3813 345° North  Level FlightAware Approximate
03:47PM 37.8356 -122.3811 355° North 190 219 7,300  Level Oakland Center
03:48PM 38.0009 -122.3667 North  Level FlightAware Approximate
03:48PM 37.8908 -122.3819 359° North 198 228 8,800  Level Oakland Center
03:49PM 37.9467 -122.3828 359° North 202 232 10,600 1,620 Climbing Oakland Center
03:50PM 37.9992 -122.3825 360° North 191 220 12,200 1,440 Climbing Oakland Center
03:51PM 38.0533 -122.3728 North 195 224 13,600 1,260 Climbing Oakland Center
03:52PM 38.1078 -122.3619 North 198 228 14,900 1,380 Climbing Oakland Center
03:53PM 38.1719 -122.3503 North 195 224 16,500 1,260 Climbing Oakland Center
03:54PM 38.2258 -122.3419 North 198 228 17,500 840 Climbing Oakland Center
03:55PM 38.2828 -122.3306 North 207 238 18,300 900 Climbing Oakland Center
03:56PM 38.3406 -122.3206 North 208 239 19,400 1,020 Climbing Oakland Center
03:57PM 38.3994 -122.3092 North 212 244 20,400 840 Climbing Oakland Center
03:58PM 38.4583 -122.2992 North 215 247 21,200 780 Climbing Oakland Center
03:59PM 38.5203 -122.2886 North 222 255 22,100 780 Climbing Oakland Center
04:00PM 38.5814 -122.2761 North 224 258 22,900 780 Climbing Oakland Center
04:01PM 38.6414 -122.2650 North 221 254 23,700 540 Climbing Oakland Center
04:02PM 38.7081 -122.2550 North 227 261 24,000 120 Climbing Oakland Center
04:03PM 38.7781 -122.2422 North 249 287 24,000  Level Oakland Center
04:04PM 38.8506 -122.2286 North 259 298 24,000  Level Oakland Center
04:05PM 38.9356 -122.2136 North 255 293 24,000  Level Oakland Center
04:06PM 39.0056 -122.2003 North 252 290 24,000  Level Oakland Center
04:07PM 39.0758 -122.1867 North 252 290 24,000  Level Oakland Center
04:08PM 39.1458 -122.1739 North 252 290 24,000  Level Oakland Center
04:09PM 39.2164 -122.1603 North 254 292 24,000  Level Oakland Center
04:10PM 39.2869 -122.1469 North 254 292 24,000  Level Oakland Center
04:11PM 39.3564 -122.1333 North 252 290 24,000  Level Oakland Center
04:13PM 39.4264 -122.1208 North 252 290 24,000  Level Oakland Center
04:14PM 39.4992 -122.1083 North 248 285 24,000  Level Oakland Center
04:15PM 39.5686 -122.0947 North 249 287 24,000  Level Oakland Center
04:16PM 39.6378 -122.0819 North 250 288 24,000  Level Oakland Center
04:17PM 39.7064 -122.0681 North 249 287 24,000  Level Oakland Center
04:18PM 39.7764 -122.0558 North 252 290 24,000  Level Oakland Center
04:19PM 39.8456 -122.0428 North 251 289 24,000  Level Oakland Center
04:20PM 39.9289 -122.0267 North 253 291 24,000  Level Oakland Center
04:21PM 39.9983 -122.0128 North 253 291 24,000  Level Oakland Center
04:22PM 40.0672 -121.9992 North 252 290 24,000  Level Oakland Center
04:23PM 40.1367 -121.9850 North 253 291 24,000  Level Oakland Center
04:24PM 40.2058 -121.9731 North 254 292 24,000  Level Oakland Center
04:25PM 40.2753 -121.9608 North 254 292 24,000  Level Oakland Center
04:26PM 40.3453 -121.9481 North 255 293 24,000  Level Oakland Center
04:27PM 40.4294 -121.9306 North 256 295 24,000  Level Oakland Center
04:28PM 40.4994 -121.9164 North 256 295 24,000  Level Oakland Center
04:29PM 40.5697 -121.9039 North 257 296 24,000  Level Oakland Center
04:30PM 40.6394 -121.8906 North 255 293 24,000  Level Oakland Center
04:31PM 40.7097 -121.8772 North 256 295 24,000  Level Oakland Center
04:32PM 40.7797 -121.8639 North 255 293 24,000  Level Oakland Center
04:33PM 40.8497 -121.8503 North 255 293 24,000  Level Oakland Center
04:34PM 40.9200 -121.8369 North 257 296 24,000  Level Oakland Center
04:35PM 40.9897 -121.8222 North 255 293 24,000  Level Oakland Center
04:36PM 41.0739 -121.8061 North 255 293 24,000  Level Oakland Center
04:37PM 41.1333 -121.7981 North 257 296 24,000  Level Oakland Center
04:37PM 41.1608 -121.7919 North 254 292 24,000  Level Seattle Center
04:38PM 41.2308 -121.7778 North 255 293 24,000  Level Seattle Center
04:39PM 41.3006 -121.7642 North 253 291 24,000  Level Seattle Center
04:40PM 41.3714 -121.7506 North 257 296 24,000  Level Seattle Center
04:41PM 41.4419 -121.7364 North 256 295 24,000  Level Seattle Center
04:42PM 41.5119 -121.7217 North 256 295 24,000  Level Seattle Center
04:43PM 41.5825 -121.7075 North 258 297 24,000  Level Seattle Center
04:44PM 41.6542 -121.6931 North 260 299 24,000  Level Seattle Center
04:45PM 41.7242 -121.6808 North 258 297 24,000  Level Seattle Center
04:46PM 41.7939 -121.6658 North 256 295 24,000  Level Seattle Center
04:47PM 41.8767 -121.6492 North 253 291 24,000  Level Seattle Center
04:48PM 41.9469 -121.6356 North 257 296 24,000  Level Seattle Center
04:49PM 42.0161 -121.6200 North 256 295 24,000  Level Seattle Center
04:50PM 42.0856 -121.6056 North 256 295 24,000  Level Seattle Center
04:51PM 42.1550 -121.5919 North 255 293 24,000  Level Seattle Center
04:52PM 42.2250 -121.5789 North 255 293 24,000  Level Seattle Center
04:54PM 42.2961 -121.5633 North 258 297 24,000  Level Seattle Center
04:55PM 42.3672 -121.5486 North 260 299 24,000  Level Seattle Center
04:56PM 42.4381 -121.5331 North 259 298 24,000  Level Seattle Center
04:57PM 42.5083 -121.5192 North 257 296 24,000  Level Seattle Center
04:58PM 42.5803 -121.5053 North 259 298 24,000  Level Seattle Center
04:59PM 42.6511 -121.4889 10° North 260 299 24,000 -360 Level Seattle Center
05:00PM 42.7389 -121.4711 North 264 304 23,300 -900 Descending Seattle Center
05:01PM 42.8217 -121.4550 North 295 339 22,200 -1,260 Descending Seattle Center
05:02PM 42.9006 -121.4344 11° North 292 336 20,800 -1,500 Descending Seattle Center
05:03PM 42.9739 -121.3925 23° Northeast 287 330 19,200 -1,440 Descending Seattle Center
05:04PM 43.0475 -121.3583 19° North 281 323 17,900 -1,200 Descending Seattle Center
05:05PM 43.1183 -121.3233 20° North 274 315 16,900 -1,200 Descending Seattle Center
05:06PM 43.1875 -121.2908 19° North 267 307 15,600 -1,380 Descending Seattle Center
05:07PM 43.2578 -121.2672 14° North 262 302 14,200 -1,380 Descending Seattle Center
05:08PM 43.3267 -121.2628 North 252 290 12,800 -1,080 Descending Seattle Center
05:09PM 43.3964 -121.2556 North 250 288 12,100 -420 Descending Seattle Center
05:10PM 43.4656 -121.2456 North 251 289 12,000 -60 Descending Seattle Center
05:11PM 43.5325 -121.2375 North 245 282 12,000  Level Seattle Center
05:12PM 43.5936 -121.2322 North 225 259 12,000  Level Seattle Center
05:13PM 43.6536 -121.2256 North 218 251 12,000  Level Seattle Center
05:14PM 43.7142 -121.2175 North 218 251 12,000 -60 Level Seattle Center
05:15PM 43.7772 -121.2108 North 222 255 11,900 -900 Descending Seattle Center
05:16PM 43.8561 -121.1969 North 234 269 10,200 -1,260 Descending Seattle Center
05:17PM 43.9222 -121.1906 North 238 274 9,400 -1,080 Descending Seattle Center
05:18PM 43.9842 -121.1822 North 228 262 8,100 -960 Descending Seattle Center
05:19PM 44.0436 -121.1756 North 220 253 7,500 -540 Descending Seattle Center
05:20PM 44.1039 -121.1686 North 218 251 7,100 -420 Descending Seattle Center